createdAt,value
2023-01-29T00:01:58.102Z,32.47
2023-01-29T00:05:13.038Z,20.08
2023-01-29T00:08:23.923Z,8.20
2023-01-29T00:11:27.025Z,27.10
2023-01-29T00:14:29.990Z,37.92
2023-01-29T00:17:33.755Z,24.05
2023-01-29T00:20:37.051Z,18.25
2023-01-29T00:23:40.663Z,11.57
2023-01-29T00:26:43.917Z,14.77
2023-01-29T00:30:08.042Z,20.73
2023-01-29T00:33:13.979Z,19.20
2023-01-29T00:36:18.966Z,25.02
2023-01-29T00:39:31.451Z,19.90
2023-01-29T00:43:00.962Z,18.17
2023-01-29T00:46:07.091Z,25.73
2023-01-29T00:52:32.394Z,15.85
2023-01-29T00:55:36.358Z,18.77
2023-01-29T00:58:40.638Z,22.27
2023-01-29T01:02:02.975Z,21.55
2023-01-29T01:05:08.269Z,23.92
2023-01-29T01:08:30.933Z,21.80
2023-01-29T01:11:34.813Z,24.17
2023-01-29T01:14:38.910Z,28.63
2023-01-29T01:17:42.564Z,29.05
2023-01-29T01:20:46.535Z,26.23
2023-01-29T01:23:52.436Z,29.27
2023-01-29T01:26:56.052Z,32.70
2023-01-29T01:29:59.968Z,30.27
2023-01-29T01:33:03.520Z,29.40
2023-01-29T01:36:10.564Z,29.27
2023-01-29T01:39:14.194Z,26.83
2023-01-29T01:42:18.545Z,26.65
2023-01-29T01:45:36.566Z,33.47
2023-01-29T01:48:40.854Z,13.88
2023-01-29T01:51:48.732Z,31.15
2023-01-29T01:54:52.781Z,31.13
2023-01-29T01:58:07.951Z,33.85
2023-01-29T02:01:13.676Z,31.77
2023-01-29T02:04:39.568Z,40.22
2023-01-29T02:08:04.754Z,31.30
2023-01-29T02:11:08.740Z,41.67
2023-01-29T02:17:33.734Z,67.07
2023-01-29T02:20:38.028Z,65.65
2023-01-29T02:24:13.539Z,71.30
2023-01-29T02:27:37.647Z,56.97
2023-01-29T02:31:09.989Z,74.55
2023-01-29T02:34:28.680Z,63.83
2023-01-29T02:37:43.184Z,48.88
2023-01-29T02:40:55.729Z,47.72
2023-01-29T02:44:16.844Z,44.55
2023-01-29T02:47:32.989Z,41.55
2023-01-29T02:50:55.630Z,21.73
2023-01-29T02:54:17.709Z,25.95
2023-01-29T02:57:29.612Z,33.72
2023-01-29T03:00:39.352Z,25.55
2023-01-29T03:03:46.574Z,34.05
2023-01-29T03:06:55.246Z,38.60
2023-01-29T03:09:59.951Z,51.03
2023-01-29T03:13:09.707Z,56.88
2023-01-29T03:16:52.544Z,39.10
2023-01-29T03:19:57.821Z,39.85
2023-01-29T03:23:15.120Z,40.45
2023-01-29T03:26:40.832Z,38.70
2023-01-29T03:30:07.349Z,40.58
2023-01-29T03:33:47.601Z,32.53
2023-01-29T03:37:23.129Z,36.47
2023-01-29T03:40:30.029Z,34.40
2023-01-29T03:43:54.636Z,21.50
2023-01-29T03:47:14.337Z,20.95
2023-01-29T03:53:35.981Z,17.40
2023-01-29T03:57:12.026Z,20.25
2023-01-29T04:00:23.715Z,13.00
2023-01-29T04:03:58.072Z,22.73
2023-01-29T04:07:10.022Z,18.17
2023-01-29T04:10:18.800Z,23.00
2023-01-29T04:13:24.442Z,11.77
2023-01-29T04:16:39.712Z,25.33
2023-01-29T04:19:57.650Z,17.83
2023-01-29T04:23:01.382Z,25.25
2023-01-29T04:26:30.062Z,14.85
2023-01-29T04:29:54.445Z,15.52
2023-01-29T04:33:17.514Z,11.32
2023-01-29T04:37:00.753Z,5.95
2023-01-29T04:40:09.710Z,9.57
2023-01-29T04:43:45.444Z,6.32
2023-01-29T04:47:25.267Z,12.00
2023-01-29T04:50:40.865Z,6.43
2023-01-29T04:53:57.068Z,7.93
2023-01-29T04:57:20.049Z,11.52
2023-01-29T05:00:26.568Z,9.13
2023-01-29T05:03:33.352Z,12.85
2023-01-29T05:06:38.938Z,10.90
2023-01-29T05:09:46.051Z,10.10
2023-01-29T05:12:55.993Z,8.82
2023-01-29T05:16:16.944Z,10.00
2023-01-29T05:19:20.514Z,10.00
2023-01-29T05:22:24.968Z,14.23
2023-01-29T05:25:31.511Z,11.45
2023-01-29T05:28:34.699Z,5.63
2023-01-29T05:31:37.534Z,9.27
2023-01-29T05:34:40.534Z,5.70
2023-01-29T05:37:44.199Z,6.95
2023-01-29T05:40:47.625Z,3.50
2023-01-29T05:43:50.584Z,4.13
2023-01-29T05:46:54.201Z,2.72
2023-01-29T05:49:58.197Z,3.78
2023-01-29T05:53:02.648Z,6.25
2023-01-29T05:56:06.653Z,8.20
2023-01-29T05:59:09.962Z,6.05
2023-01-29T06:02:13.256Z,7.93
2023-01-29T06:05:16.968Z,4.57
2023-01-29T06:08:21.032Z,4.28
2023-01-29T06:11:25.200Z,3.85
2023-01-29T06:14:29.030Z,4.57
2023-01-29T06:17:32.005Z,9.23
2023-01-29T06:20:35.282Z,6.82
2023-01-29T06:23:38.367Z,6.07
2023-01-29T06:26:41.332Z,4.32
2023-01-29T06:29:44.162Z,3.63
2023-01-29T06:32:47.476Z,5.65
2023-01-29T06:35:50.289Z,4.43
2023-01-29T06:38:54.229Z,12.98
2023-01-29T06:41:57.458Z,7.18
2023-01-29T06:45:00.477Z,4.30
2023-01-29T06:48:03.426Z,3.92
2023-01-29T06:51:08.765Z,5.32
2023-01-29T06:54:11.968Z,6.07
2023-01-29T06:57:15.252Z,5.82
2023-01-29T07:00:20.137Z,6.57
2023-01-29T07:03:23.795Z,7.15
2023-01-29T07:06:30.914Z,4.45
2023-01-29T07:09:34.958Z,4.90
2023-01-29T07:12:38.106Z,4.43
2023-01-29T07:15:41.691Z,7.70
2023-01-29T07:18:44.625Z,8.43
2023-01-29T07:21:48.642Z,7.65
2023-01-29T07:24:52.101Z,7.63
2023-01-29T07:27:56.068Z,7.35
2023-01-29T07:31:00.285Z,11.25
2023-01-29T07:34:04.551Z,14.05
2023-01-29T07:37:08.301Z,10.40
2023-01-29T07:40:12.776Z,9.13
2023-01-29T07:43:17.317Z,6.13
2023-01-29T07:46:21.209Z,9.80
2023-01-29T07:49:24.821Z,8.15
2023-01-29T07:52:29.947Z,5.50
2023-01-29T07:55:35.048Z,8.55
2023-01-29T07:58:38.351Z,12.70
2023-01-29T08:01:42.314Z,11.40
2023-01-29T08:04:45.901Z,12.00
2023-01-29T08:08:06.116Z,21.65
2023-01-29T08:11:10.413Z,19.83
2023-01-29T08:14:14.424Z,24.08
2023-01-29T08:17:17.872Z,26.55
2023-01-29T08:20:22.355Z,20.73
2023-01-29T08:23:25.571Z,19.42
2023-01-29T08:26:29.724Z,19.70
2023-01-29T08:29:32.971Z,21.65
2023-01-29T08:32:37.235Z,20.90
2023-01-29T08:35:41.783Z,45.83
2023-01-29T08:38:46.113Z,28.13
2023-01-29T08:41:49.692Z,42.83
2023-01-29T08:44:53.267Z,35.83
2023-01-29T08:47:56.999Z,53.50
2023-01-29T08:51:03.167Z,50.80
2023-01-29T08:54:06.807Z,45.92
2023-01-29T08:57:10.471Z,41.88
2023-01-29T09:00:15.936Z,57.88
2023-01-29T09:03:20.074Z,61.78
2023-01-29T09:06:23.186Z,70.60
2023-01-29T09:09:27.081Z,64.45
2023-01-29T09:12:31.264Z,64.95
2023-01-29T09:15:34.924Z,86.53
2023-01-29T09:18:38.915Z,81.82
2023-01-29T09:21:42.497Z,33.78
2023-01-29T09:24:46.372Z,23.63
2023-01-29T09:27:49.617Z,23.45
2023-01-29T09:30:53.576Z,18.83
2023-01-29T09:33:57.272Z,21.45
2023-01-29T09:37:00.914Z,7.65
2023-01-29T09:40:04.651Z,15.95
2023-01-29T09:43:35.587Z,34.45
2023-01-29T09:46:43.830Z,27.83
2023-01-29T09:50:28.974Z,23.30
2023-01-29T09:53:43.981Z,29.25
2023-01-29T09:56:49.163Z,29.83
2023-01-29T09:59:55.636Z,32.47
2023-01-29T10:03:32.229Z,25.48
2023-01-29T10:10:36.897Z,24.55
2023-01-29T10:14:16.214Z,12.88
2023-01-29T10:17:29.312Z,18.35
2023-01-29T10:21:05.673Z,36.80
2023-01-29T10:24:38.815Z,34.80
2023-01-29T10:27:51.950Z,31.88
2023-01-29T10:31:10.338Z,31.17
2023-01-29T10:34:24.656Z,31.08
2023-01-29T10:37:41.640Z,17.00
2023-01-29T10:40:57.132Z,23.85
2023-01-29T10:44:03.266Z,25.13
2023-01-29T10:47:53.157Z,11.70
2023-01-29T10:50:59.277Z,4.55
2023-01-29T10:54:14.727Z,11.13
2023-01-29T10:57:22.169Z,12.93
2023-01-29T11:00:31.663Z,18.55
2023-01-29T11:03:35.870Z,14.07
2023-01-29T11:06:39.498Z,18.45
2023-01-29T11:10:01.694Z,20.85
2023-01-29T11:13:06.339Z,16.60
2023-01-29T11:16:12.015Z,19.00
2023-01-29T11:19:16.791Z,21.25
2023-01-29T11:22:29.826Z,22.95
2023-01-29T11:25:33.416Z,34.40
2023-01-29T11:28:39.757Z,24.02
2023-01-29T11:31:43.696Z,35.88
2023-01-29T11:35:17.745Z,39.15
2023-01-29T11:38:29.344Z,29.98
2023-01-29T11:41:44.402Z,32.92
2023-01-29T11:44:47.848Z,29.20
2023-01-29T11:47:56.826Z,31.05
2023-01-29T11:51:01.910Z,32.15
2023-01-29T11:54:06.331Z,36.42
2023-01-29T11:57:26.978Z,39.55
2023-01-29T12:00:34.061Z,28.00
2023-01-29T12:03:47.483Z,27.98
2023-01-29T12:06:53.792Z,19.52
2023-01-29T12:09:59.637Z,33.72
2023-01-29T12:13:12.709Z,30.48
2023-01-29T12:16:49.649Z,51.20
2023-01-29T12:20:02.114Z,116.88
2023-01-29T12:23:25.118Z,83.80
2023-01-29T12:26:43.964Z,19.70
2023-01-29T12:29:59.358Z,137.02
2023-01-29T12:33:20.514Z,116.93
2023-01-29T12:36:34.558Z,110.63
2023-01-29T12:39:38.428Z,83.18
2023-01-29T12:42:47.869Z,48.28
2023-01-29T12:45:55.050Z,53.08
2023-01-29T12:49:04.028Z,41.38
2023-01-29T12:52:07.729Z,66.70
2023-01-29T12:55:18.427Z,78.78
2023-01-29T12:58:44.382Z,39.53
2023-01-29T13:01:57.744Z,47.33
2023-01-29T13:05:11.419Z,34.47
2023-01-29T13:08:40.583Z,37.15
2023-01-29T13:12:18.157Z,38.22
2023-01-29T13:15:44.950Z,71.28
2023-01-29T13:18:54.589Z,77.93
2023-01-29T13:22:02.210Z,109.30
2023-01-29T13:25:06.596Z,84.88
2023-01-29T13:28:26.562Z,113.55
2023-01-29T13:31:35.531Z,142.38
2023-01-29T13:34:46.735Z,124.97
2023-01-29T13:37:53.954Z,146.48
2023-01-29T13:41:03.064Z,100.32
2023-01-29T13:44:09.719Z,64.53
2023-01-29T13:47:24.602Z,53.78
2023-01-29T13:50:38.497Z,30.70
2023-01-29T13:53:43.813Z,69.90
2023-01-29T13:57:00.134Z,41.95
2023-01-29T14:00:04.054Z,38.03
2023-01-29T14:03:09.735Z,60.83
2023-01-29T14:06:38.911Z,65.45
2023-01-29T14:09:42.531Z,60.50
2023-01-29T14:12:47.249Z,50.08
2023-01-29T14:15:59.905Z,41.03
2023-01-29T14:19:05.937Z,36.35
2023-01-29T14:22:23.977Z,30.55
2023-01-29T14:25:36.093Z,41.60
2023-01-29T14:28:41.240Z,30.30
2023-01-29T14:31:53.796Z,52.90
2023-01-29T14:35:18.097Z,59.45
2023-01-29T14:38:27.150Z,68.68
2023-01-29T14:41:32.596Z,51.38
2023-01-29T14:44:45.247Z,81.78
2023-01-29T14:47:48.433Z,71.40
2023-01-29T14:50:53.980Z,81.15
2023-01-29T14:54:03.661Z,78.72
2023-01-29T14:57:13.212Z,61.40
2023-01-29T15:00:27.897Z,47.35
2023-01-29T15:03:46.345Z,43.00
2023-01-29T15:07:08.403Z,43.55
2023-01-29T15:10:23.491Z,50.53
2023-01-29T15:13:43.177Z,47.53
2023-01-29T15:17:23.821Z,58.35
2023-01-29T15:20:29.999Z,52.00
2023-01-29T15:23:35.249Z,55.50
2023-01-29T15:26:39.595Z,62.13
2023-01-29T15:29:44.939Z,49.72
2023-01-29T15:32:50.018Z,41.10
2023-01-29T15:36:07.304Z,47.72
2023-01-29T15:39:14.436Z,49.35
2023-01-29T15:42:22.387Z,40.70
2023-01-29T15:45:33.980Z,50.72
2023-01-29T15:48:41.591Z,40.90
2023-01-29T15:51:47.996Z,57.67
2023-01-29T15:54:52.198Z,58.05
2023-01-29T15:57:56.377Z,40.28
2023-01-29T16:01:01.338Z,38.92
2023-01-29T16:04:05.711Z,48.92
2023-01-29T16:07:08.807Z,135.65
2023-01-29T16:10:22.313Z,146.05
2023-01-29T16:13:29.812Z,141.43
2023-01-29T16:19:39.806Z,79.80
2023-01-29T16:22:43.474Z,74.93
2023-01-29T16:25:47.277Z,96.40
2023-01-29T16:28:51.797Z,104.60
2023-01-29T16:32:01.446Z,86.43
2023-01-29T16:35:06.405Z,133.60
2023-01-29T16:38:32.119Z,148.45
2023-01-29T16:41:39.187Z,129.38
2023-01-29T16:44:47.201Z,168.65
2023-01-29T16:48:02.484Z,126.57
2023-01-29T16:51:29.280Z,98.70
2023-01-29T16:54:32.555Z,139.73
2023-01-29T16:57:35.544Z,120.80
2023-01-29T17:00:38.863Z,83.13
2023-01-29T17:03:43.264Z,122.25
2023-01-29T17:06:49.745Z,80.00
2023-01-29T17:09:59.911Z,75.57
2023-01-29T17:13:07.815Z,134.80
2023-01-29T17:16:25.094Z,126.35
2023-01-29T17:22:31.761Z,225.55
2023-01-29T17:25:34.746Z,258.17
2023-01-29T17:28:37.983Z,190.30
2023-01-29T17:31:41.191Z,231.05
2023-01-29T17:34:44.903Z,230.77
2023-01-29T17:37:49.389Z,222.15
2023-01-29T17:40:56.507Z,178.55
2023-01-29T17:43:59.885Z,134.23
2023-01-29T17:47:03.777Z,147.13
2023-01-29T17:50:21.305Z,164.18
2023-01-29T17:56:33.950Z,81.25
2023-01-29T17:59:37.145Z,108.95
2023-01-29T18:02:40.736Z,112.72
2023-01-29T18:05:49.176Z,233.35
2023-01-29T18:08:53.041Z,209.57
2023-01-29T18:11:56.199Z,202.95
2023-01-29T18:14:59.761Z,222.65
2023-01-29T18:18:03.357Z,281.70
2023-01-29T18:21:06.837Z,281.13
2023-01-29T18:24:10.186Z,230.15
2023-01-29T18:27:13.295Z,222.75
2023-01-29T18:30:17.148Z,235.70
2023-01-29T18:33:20.822Z,186.35
2023-01-29T18:36:25.068Z,201.25
2023-01-29T18:39:28.272Z,208.68
2023-01-29T18:42:34.187Z,134.43
2023-01-29T18:45:37.937Z,267.85
2023-01-29T18:48:42.761Z,267.88
2023-01-29T18:51:46.444Z,259.67
2023-01-29T18:54:50.762Z,203.43
2023-01-29T18:58:28.747Z,194.73
2023-01-29T19:01:18.912Z,168.63
2023-01-29T19:04:21.921Z,188.10
2023-01-29T19:07:25.695Z,138.05
2023-01-29T19:10:28.918Z,329.48
2023-01-29T19:13:33.495Z,246.10
2023-01-29T19:16:36.972Z,290.90
2023-01-29T19:19:40.322Z,275.13
2023-01-29T19:22:44.835Z,234.90
2023-01-29T19:25:48.196Z,234.27
2023-01-29T19:28:51.891Z,178.68
2023-01-29T19:31:55.181Z,203.10
2023-01-29T19:34:59.174Z,203.05
2023-01-29T19:38:03.311Z,189.63
2023-01-29T19:41:07.294Z,181.77
2023-01-29T19:44:12.430Z,164.23
2023-01-29T19:47:16.272Z,147.52
2023-01-29T19:50:19.963Z,147.07
2023-01-29T19:53:23.635Z,175.68
2023-01-29T19:56:26.880Z,193.65
2023-01-29T19:59:30.455Z,204.48
2023-01-29T20:02:34.464Z,186.60
2023-01-29T20:05:38.083Z,201.75
2023-01-29T20:08:41.170Z,245.52
2023-01-29T20:11:44.778Z,225.00
2023-01-29T20:14:49.823Z,209.68
2023-01-29T20:17:52.712Z,219.90
2023-01-29T20:20:56.830Z,202.15
2023-01-29T20:24:00.557Z,163.52
2023-01-29T20:27:04.230Z,146.05
2023-01-29T20:30:09.072Z,118.00
2023-01-29T20:33:13.344Z,122.05
2023-01-29T20:36:16.911Z,123.72
2023-01-29T20:39:20.184Z,113.53
2023-01-29T20:42:23.597Z,162.25
2023-01-29T20:45:27.609Z,117.50
2023-01-29T20:48:32.204Z,132.10
2023-01-29T20:51:35.668Z,181.38
2023-01-29T20:54:39.324Z,148.30
2023-01-29T20:57:43.729Z,107.30
2023-01-29T21:01:15.983Z,96.25
2023-01-29T21:04:19.732Z,87.35
2023-01-29T21:07:23.136Z,105.43
2023-01-29T21:10:25.990Z,96.03
2023-01-29T21:13:28.976Z,93.50
2023-01-29T21:16:32.715Z,97.65
2023-01-29T21:19:36.064Z,116.05
2023-01-29T21:22:39.488Z,110.35
2023-01-29T21:25:43.116Z,92.60
2023-01-29T21:28:47.074Z,136.02
2023-01-29T21:31:51.100Z,99.40
2023-01-29T21:34:54.969Z,100.60
2023-01-29T21:37:57.957Z,90.82
2023-01-29T21:41:05.895Z,99.32
2023-01-29T21:44:09.084Z,96.05
2023-01-29T21:47:15.582Z,101.28
2023-01-29T21:50:18.829Z,115.57
2023-01-29T21:53:23.226Z,117.40
2023-01-29T21:56:26.551Z,89.65
2023-01-29T21:59:30.154Z,76.03
2023-01-29T22:02:33.865Z,107.47
2023-01-29T22:05:36.910Z,131.48
2023-01-29T22:08:41.238Z,81.13
2023-01-29T22:11:44.417Z,83.45
2023-01-29T22:14:48.311Z,78.13
2023-01-29T22:17:52.343Z,109.03
2023-01-29T22:20:56.611Z,98.97
2023-01-29T22:23:59.525Z,109.85
2023-01-29T22:27:02.811Z,109.15
2023-01-29T22:30:07.140Z,81.05
2023-01-29T22:33:11.395Z,119.68
2023-01-29T22:36:14.644Z,91.75
2023-01-29T22:39:17.959Z,94.20
2023-01-29T22:42:21.288Z,103.28
2023-01-29T22:45:25.459Z,100.03
2023-01-29T22:48:29.145Z,109.10
2023-01-29T22:51:40.215Z,132.80
2023-01-29T22:54:44.457Z,154.38
2023-01-29T22:57:50.650Z,151.10
2023-01-29T23:00:53.524Z,178.98
2023-01-29T23:03:56.896Z,159.23
2023-01-29T23:06:59.837Z,167.23
2023-01-29T23:10:05.171Z,148.48
2023-01-29T23:13:09.124Z,148.05
2023-01-29T23:16:14.341Z,124.18
2023-01-29T23:19:18.171Z,155.00
2023-01-29T23:22:21.230Z,142.35
2023-01-29T23:25:44.268Z,107.75
2023-01-29T23:28:48.301Z,120.63
2023-01-29T23:31:51.370Z,136.50
2023-01-29T23:34:55.216Z,133.65
2023-01-29T23:37:58.917Z,86.13
2023-01-29T23:41:02.058Z,106.22
2023-01-29T23:44:05.665Z,105.45
2023-01-29T23:47:10.161Z,123.00
2023-01-29T23:50:13.646Z,102.43
2023-01-29T23:53:17.313Z,154.00
2023-01-29T23:56:20.431Z,95.55
2023-01-29T23:59:24.545Z,102.53
